createdAt,value
2019-05-23T00:01:09.775Z,100334.11
2019-05-23T00:03:58.924Z,100341.97
2019-05-23T00:06:28.559Z,100338.39
2019-05-23T00:08:58.383Z,100339.75
2019-05-23T00:11:55.455Z,100345.02
2019-05-23T00:14:43.324Z,100354.48
2019-05-23T00:17:18.828Z,100351.06
2019-05-23T00:19:50.112Z,100352.66
2019-05-23T00:22:20.360Z,100356.72
2019-05-23T00:24:50.361Z,100359.21
2019-05-23T00:27:20.563Z,100352.69
2019-05-23T00:29:51.532Z,100357.36
2019-05-23T00:32:46.200Z,100356.38
2019-05-23T00:35:17.476Z,100352.37
2019-05-23T00:37:47.355Z,100353.45
2019-05-23T00:40:17.975Z,100352.83
2019-05-23T00:42:47.569Z,100358.08
2019-05-23T00:45:18.482Z,100349.37
2019-05-23T00:47:49.387Z,100339.04
2019-05-23T00:50:21.390Z,100335.99
2019-05-23T00:52:51.959Z,100325.77
2019-05-23T00:55:22.192Z,100323.09
2019-05-23T00:57:51.820Z,100318.23
2019-05-23T01:00:22.830Z,100322.02
2019-05-23T01:02:54.180Z,100321.97
2019-05-23T01:05:24.241Z,100323.48
2019-05-23T01:07:53.993Z,100335.84
2019-05-23T01:10:23.636Z,100335.33
2019-05-23T01:12:53.071Z,100339.95
2019-05-23T01:15:24.397Z,100336.25
2019-05-23T01:17:55.211Z,100329.73
2019-05-23T01:20:45.072Z,100328.61
2019-05-23T01:23:15.108Z,100322.42
2019-05-23T01:25:44.852Z,100325.06
2019-05-23T01:28:14.597Z,100323.66
2019-05-23T01:30:46.554Z,100320.34
2019-05-23T01:33:17.664Z,100318.95
2019-05-23T01:35:46.981Z,100325.33
2019-05-23T01:38:16.587Z,100335.13
2019-05-23T01:40:46.117Z,100343.45
2019-05-23T01:43:16.081Z,100355.47
2019-05-23T01:45:46.565Z,100356.10
2019-05-23T01:48:17.288Z,100356.23
2019-05-23T01:50:46.604Z,100356.14
2019-05-23T01:53:15.967Z,100351.60
2019-05-23T01:55:46.828Z,100348.84
2019-05-23T01:58:16.522Z,100358.28
2019-05-23T02:00:47.253Z,100357.16
2019-05-23T02:03:16.660Z,100364.52
2019-05-23T02:05:46.690Z,100364.59
2019-05-23T02:08:16.600Z,100365.73
2019-05-23T02:10:46.977Z,100381.12
2019-05-23T02:13:16.198Z,100386.58
2019-05-23T02:15:45.624Z,100393.37
2019-05-23T02:18:16.136Z,100404.84
2019-05-23T02:20:46.236Z,100413.58
2019-05-23T02:23:18.032Z,100427.08
2019-05-23T02:25:48.665Z,100423.13
2019-05-23T02:28:19.004Z,100432.51
2019-05-23T02:30:48.396Z,100433.16
2019-05-23T02:33:17.686Z,100443.83
2019-05-23T02:35:46.922Z,100445.80
2019-05-23T02:38:33.865Z,100448.98
2019-05-23T02:41:22.072Z,100453.97
2019-05-23T02:43:56.526Z,100444.58
2019-05-23T02:46:51.147Z,100448.14
2019-05-23T02:49:23.010Z,100453.50
2019-05-23T02:51:53.702Z,100452.98
2019-05-23T02:54:27.047Z,100455.80
2019-05-23T02:56:59.269Z,100449.80
2019-05-23T02:59:48.296Z,100446.30
2019-05-23T03:02:47.863Z,100452.48
2019-05-23T03:05:18.917Z,100450.95
2019-05-23T03:07:48.163Z,100450.95
2019-05-23T03:10:20.511Z,100448.08
2019-05-23T03:12:52.874Z,100447.88
2019-05-23T03:15:24.851Z,100448.16
2019-05-23T03:17:56.791Z,100451.11
2019-05-23T03:20:27.012Z,100446.28
2019-05-23T03:23:08.591Z,100447.17
2019-05-23T03:26:19.407Z,100450.13
2019-05-23T03:28:49.899Z,100446.59
2019-05-23T03:31:35.900Z,100444.72
2019-05-23T03:34:08.023Z,100443.82
2019-05-23T03:36:38.718Z,100451.69
2019-05-23T03:39:09.557Z,100442.78
2019-05-23T03:41:39.466Z,100452.19
2019-05-23T03:44:10.168Z,100453.72
2019-05-23T03:46:44.622Z,100448.70
2019-05-23T03:49:14.871Z,100458.23
2019-05-23T03:51:44.891Z,100453.87
2019-05-23T03:54:15.158Z,100455.35
2019-05-23T03:56:44.468Z,100455.59
2019-05-23T03:59:14.330Z,100446.95
2019-05-23T04:01:48.379Z,100445.55
2019-05-23T04:04:16.150Z,100442.59
2019-05-23T04:06:47.797Z,100446.41
2019-05-23T04:09:17.729Z,100444.28
2019-05-23T04:11:46.950Z,100445.94
2019-05-23T04:14:17.382Z,100444.41
2019-05-23T04:16:47.240Z,100435.12
2019-05-23T04:19:17.688Z,100446.71
2019-05-23T04:21:46.987Z,100435.89
2019-05-23T04:24:16.932Z,100447.36
2019-05-23T04:26:46.605Z,100438.59
2019-05-23T04:29:15.838Z,100445.45
2019-05-23T04:31:45.344Z,100441.58
2019-05-23T04:34:15.110Z,100444.92
2019-05-23T04:36:44.392Z,100440.52
2019-05-23T04:39:14.318Z,100443.31
2019-05-23T04:41:43.961Z,100446.43
2019-05-23T04:44:13.454Z,100446.95
2019-05-23T04:46:43.204Z,100445.93
2019-05-23T04:49:12.789Z,100447.10
2019-05-23T04:51:42.517Z,100446.45
2019-05-23T04:54:12.378Z,100447.66
2019-05-23T04:56:41.745Z,100440.27
2019-05-23T04:59:11.460Z,100435.52
2019-05-23T05:01:40.829Z,100426.97
2019-05-23T05:04:10.551Z,100423.08
2019-05-23T05:06:40.126Z,100420.29
2019-05-23T05:09:11.440Z,100408.35
2019-05-23T05:11:40.787Z,100402.44
2019-05-23T05:14:10.291Z,100403.05
2019-05-23T05:16:40.198Z,100399.42
2019-05-23T05:19:09.430Z,100397.76
2019-05-23T05:21:39.244Z,100398.59
2019-05-23T05:24:08.434Z,100398.58
2019-05-23T05:26:37.822Z,100395.63
2019-05-23T05:29:07.093Z,100399.26
2019-05-23T05:31:36.442Z,100397.48
2019-05-23T05:34:05.882Z,100395.17
2019-05-23T05:36:35.137Z,100391.22
2019-05-23T05:39:06.944Z,100387.07
2019-05-23T05:41:36.929Z,100379.86
2019-05-23T05:44:06.857Z,100375.73
2019-05-23T05:46:36.372Z,100375.92
2019-05-23T05:49:06.822Z,100376.13
2019-05-23T05:51:36.137Z,100370.83
2019-05-23T05:54:05.891Z,100368.19
2019-05-23T05:56:35.567Z,100355.33
2019-05-23T05:59:05.016Z,100358.19
2019-05-23T06:01:35.058Z,100342.73
2019-05-23T06:04:05.360Z,100335.70
2019-05-23T06:06:45.644Z,100324.83
2019-05-23T06:09:26.216Z,100313.18
2019-05-23T06:11:55.494Z,100303.91
2019-05-23T06:14:24.930Z,100287.85
2019-05-23T06:16:56.013Z,100282.90
2019-05-23T06:19:25.517Z,100274.72
2019-05-23T06:21:54.850Z,100265.42
2019-05-23T06:24:41.683Z,100259.66
2019-05-23T06:26:56.152Z,100248.72
2019-05-23T06:29:25.832Z,100247.91
2019-05-23T06:31:56.274Z,100249.56
2019-05-23T06:34:25.812Z,100252.83
2019-05-23T06:36:55.537Z,100245.48
2019-05-23T06:39:25.412Z,100244.65
2019-05-23T06:41:54.714Z,100252.77
2019-05-23T06:44:24.097Z,100256.45
2019-05-23T06:46:53.344Z,100248.41
2019-05-23T06:49:22.725Z,100246.47
2019-05-23T06:51:51.962Z,100253.98
2019-05-23T06:54:21.227Z,100245.20
2019-05-23T06:56:52.848Z,100240.14
2019-05-23T06:59:22.433Z,100239.62
2019-05-23T07:01:52.032Z,100236.34
2019-05-23T07:04:21.866Z,100232.48
2019-05-23T07:06:51.907Z,100232.15
2019-05-23T07:09:21.613Z,100234.77
2019-05-23T07:11:54.525Z,100237.35
2019-05-23T07:14:23.973Z,100233.74
2019-05-23T07:16:53.223Z,100234.63
2019-05-23T07:19:22.519Z,100237.75
2019-05-23T07:21:51.856Z,100238.27
2019-05-23T07:24:22.319Z,100243.00
2019-05-23T07:26:51.796Z,100246.64
2019-05-23T07:29:25.548Z,100258.19
2019-05-23T07:31:54.880Z,100256.72
2019-05-23T07:34:25.321Z,100253.77
2019-05-23T07:36:54.871Z,100259.78
2019-05-23T07:39:24.150Z,100268.06
2019-05-23T07:41:53.639Z,100263.47
2019-05-23T07:44:23.361Z,100271.67
2019-05-23T07:46:52.736Z,100267.02
2019-05-23T07:49:21.983Z,100279.98
2019-05-23T07:51:51.192Z,100277.75
2019-05-23T07:54:32.978Z,100282.55
2019-05-23T07:57:02.695Z,100266.50
2019-05-23T07:59:35.270Z,100266.59
2019-05-23T08:02:16.559Z,100266.95
2019-05-23T08:04:45.935Z,100278.69
2019-05-23T08:07:16.666Z,100282.57
2019-05-23T08:09:46.059Z,100278.35
2019-05-23T08:12:15.390Z,100275.80
2019-05-23T08:14:44.870Z,100266.80
2019-05-23T08:17:14.286Z,100267.81
2019-05-23T08:19:49.647Z,100266.77
2019-05-23T08:22:14.987Z,100266.77
2019-05-23T08:24:44.251Z,100275.74
2019-05-23T08:27:13.945Z,100270.48
2019-05-23T08:29:43.300Z,100274.64
2019-05-23T08:32:13.109Z,100284.87
2019-05-23T08:34:43.034Z,100284.87
2019-05-23T08:37:14.161Z,100301.64
2019-05-23T08:39:44.399Z,100299.20
2019-05-23T08:42:14.469Z,100292.20
2019-05-23T08:44:44.675Z,100291.00
2019-05-23T08:47:14.152Z,100306.11
2019-05-23T08:49:43.464Z,100345.91
2019-05-23T08:52:13.156Z,100365.29
2019-05-23T08:54:43.809Z,100366.84
2019-05-23T08:57:14.769Z,100366.84
2019-05-23T08:59:44.021Z,100364.19
2019-05-23T09:02:13.540Z,100364.19
2019-05-23T09:05:02.285Z,100378.51
2019-05-23T09:07:14.814Z,100380.65
2019-05-23T09:09:44.703Z,100386.19
2019-05-23T09:12:14.135Z,100389.02
2019-05-23T09:14:44.361Z,100389.02
2019-05-23T09:17:13.846Z,100389.91
2019-05-23T09:19:43.320Z,100394.09
2019-05-23T09:22:12.745Z,100379.50
2019-05-23T09:24:42.057Z,100379.50
2019-05-23T09:27:11.941Z,100382.44
2019-05-23T09:29:42.075Z,100378.73
2019-05-23T09:32:11.677Z,100374.26
2019-05-23T09:34:40.888Z,100375.03
2019-05-23T09:37:11.808Z,100373.67
2019-05-23T09:39:41.955Z,100372.84
2019-05-23T09:42:12.299Z,100368.22
2019-05-23T09:44:41.939Z,100357.66
2019-05-23T09:47:11.468Z,100370.76
2019-05-23T09:49:40.732Z,100372.80
2019-05-23T09:52:12.126Z,100381.95
2019-05-23T09:54:41.740Z,100390.41
2019-05-23T09:57:12.045Z,100379.19
2019-05-23T09:59:41.325Z,100373.20
2019-05-23T10:02:11.701Z,100371.02
2019-05-23T10:04:41.012Z,100363.47
2019-05-23T10:07:10.732Z,100377.59
2019-05-23T10:09:39.915Z,100387.19
2019-05-23T10:12:09.201Z,100370.69
2019-05-23T10:14:39.265Z,100390.95
2019-05-23T10:17:09.010Z,100389.55
2019-05-23T10:19:38.509Z,100374.98
2019-05-23T10:22:08.458Z,100375.93
2019-05-23T10:24:37.825Z,100378.93
2019-05-23T10:27:08.875Z,100360.90
2019-05-23T10:29:38.293Z,100351.53
2019-05-23T10:32:09.292Z,100357.80
2019-05-23T10:34:39.208Z,100357.02
2019-05-23T10:37:10.375Z,100346.79
2019-05-23T10:39:41.115Z,100365.15
2019-05-23T10:42:10.592Z,100364.23
2019-05-23T10:44:39.875Z,100361.42
2019-05-23T10:47:09.138Z,100348.55
2019-05-23T10:49:38.516Z,100354.91
2019-05-23T10:52:07.761Z,100357.35
2019-05-23T10:54:37.041Z,100356.59
2019-05-23T10:57:06.411Z,100348.23
2019-05-23T10:59:35.719Z,100348.14
2019-05-23T11:02:06.369Z,100340.70
2019-05-23T11:04:36.101Z,100340.93
2019-05-23T11:07:05.526Z,100339.29
2019-05-23T11:09:38.333Z,100337.95
2019-05-23T11:12:07.718Z,100336.72
2019-05-23T11:14:37.502Z,100334.44
2019-05-23T11:17:06.957Z,100331.83
2019-05-23T11:19:36.313Z,100335.17
2019-05-23T11:22:06.702Z,100330.63
2019-05-23T11:24:36.037Z,100328.61
2019-05-23T11:27:05.488Z,100336.30
2019-05-23T11:29:34.783Z,100331.99
2019-05-23T11:32:05.752Z,100325.89
2019-05-23T11:34:36.242Z,100328.75
2019-05-23T11:37:07.561Z,100331.52
2019-05-23T11:39:41.978Z,100331.46
2019-05-23T11:42:08.378Z,100327.49
2019-05-23T11:44:37.654Z,100330.03
2019-05-23T11:47:07.235Z,100322.06
2019-05-23T11:49:36.542Z,100317.72
2019-05-23T11:52:06.248Z,100314.13
2019-05-23T11:54:36.412Z,100327.00
2019-05-23T11:57:05.983Z,100312.91
2019-05-23T11:59:35.444Z,100314.81
2019-05-23T12:02:13.611Z,100319.30
2019-05-23T12:04:44.153Z,100312.55
2019-05-23T12:09:49.314Z,100307.80
2019-05-23T12:12:18.785Z,100308.48
2019-05-23T12:14:48.074Z,100311.68
2019-05-23T12:17:19.655Z,100316.33
2019-05-23T12:19:49.392Z,100314.38
2019-05-23T12:22:18.780Z,100307.27
2019-05-23T12:24:48.116Z,100305.34
2019-05-23T12:27:17.580Z,100299.38
2019-05-23T12:29:47.134Z,100296.42
2019-05-23T12:32:16.688Z,100289.84
2019-05-23T12:35:08.123Z,100298.20
2019-05-23T12:37:20.396Z,100297.99
2019-05-23T12:39:49.364Z,100296.95
2019-05-23T12:42:18.823Z,100299.58
2019-05-23T12:44:48.167Z,100304.57
2019-05-23T12:47:27.433Z,100295.53
2019-05-23T12:50:02.468Z,100295.84
2019-05-23T12:52:32.783Z,100294.02
2019-05-23T12:55:02.049Z,100291.22
2019-05-23T12:57:31.516Z,100292.97
2019-05-23T13:00:00.831Z,100287.63
2019-05-23T13:02:31.008Z,100286.95
2019-05-23T13:05:00.677Z,100286.70
2019-05-23T13:07:36.238Z,100283.25
2019-05-23T13:10:01.931Z,100285.32
2019-05-23T13:12:31.726Z,100279.66
2019-05-23T13:15:01.007Z,100274.09
2019-05-23T13:17:30.726Z,100269.55
2019-05-23T13:20:00.002Z,100266.09
2019-05-23T13:22:29.483Z,100266.50
2019-05-23T13:24:58.752Z,100269.58
2019-05-23T13:27:29.229Z,100270.28
2019-05-23T13:29:58.553Z,100265.49
2019-05-23T13:32:27.998Z,100266.67
2019-05-23T13:34:57.302Z,100256.50
2019-05-23T13:37:27.003Z,100253.44
2019-05-23T13:40:00.175Z,100253.21
2019-05-23T13:42:29.621Z,100247.28
2019-05-23T13:45:19.822Z,100248.70
2019-05-23T13:47:49.335Z,100243.25
2019-05-23T13:50:19.040Z,100245.20
2019-05-23T13:52:48.431Z,100240.44
2019-05-23T13:55:18.347Z,100233.41
2019-05-23T13:58:05.101Z,100244.14
2019-05-23T14:00:35.647Z,100240.73
2019-05-23T14:03:05.086Z,100235.98
2019-05-23T14:05:34.688Z,100234.50
2019-05-23T14:08:12.159Z,100225.74
2019-05-23T14:10:35.203Z,100229.63
2019-05-23T14:13:07.149Z,100226.02
2019-05-23T14:15:40.819Z,100229.89
2019-05-23T14:18:11.734Z,100220.81
2019-05-23T14:20:41.308Z,100226.51
2019-05-23T14:23:24.898Z,100224.12
2019-05-23T14:29:38.803Z,100228.00
2019-05-23T14:34:45.549Z,100224.30
2019-05-23T14:37:23.825Z,100225.95
2019-05-23T14:39:56.859Z,100215.49
2019-05-23T14:42:52.736Z,100218.91
2019-05-23T14:45:46.456Z,100219.36
2019-05-23T14:48:27.620Z,100212.98
2019-05-23T14:51:11.895Z,100210.94
2019-05-23T14:53:42.761Z,100205.40
2019-05-23T14:56:15.163Z,100209.05
2019-05-23T14:58:46.682Z,100207.56
2019-05-23T15:01:15.984Z,100206.20
2019-05-23T15:06:24.363Z,100199.09
2019-05-23T15:09:00.122Z,100192.73
2019-05-23T15:11:30.211Z,100193.04
2019-05-23T15:14:00.976Z,100190.56
2019-05-23T15:16:35.333Z,100188.08
2019-05-23T15:19:07.398Z,100188.70
2019-05-23T15:21:36.912Z,100189.11
2019-05-23T15:24:06.860Z,100182.86
2019-05-23T15:26:36.257Z,100186.80
2019-05-23T15:29:06.291Z,100183.52
2019-05-23T15:31:37.961Z,100184.84
2019-05-23T15:34:07.323Z,100184.62
2019-05-23T15:36:37.468Z,100183.89
2019-05-23T15:39:19.157Z,100172.44
2019-05-23T15:41:48.682Z,100177.58
2019-05-23T15:44:26.916Z,100173.09
2019-05-23T15:46:59.595Z,100171.11
2019-05-23T15:49:38.154Z,100172.98
2019-05-23T15:52:26.263Z,100170.39
2019-05-23T15:55:29.193Z,100166.14
2019-05-23T15:58:13.948Z,100172.98
2019-05-23T16:00:56.016Z,100158.16
2019-05-23T16:03:50.628Z,100155.66
2019-05-23T16:06:21.631Z,100160.03
2019-05-23T16:08:52.831Z,100158.59
2019-05-23T16:11:22.259Z,100160.84
2019-05-23T16:14:32.213Z,100157.16
2019-05-23T16:17:03.164Z,100161.92
2019-05-23T16:19:32.813Z,100160.92
2019-05-23T16:22:02.724Z,100160.74
2019-05-23T16:24:32.211Z,100157.88
2019-05-23T16:27:01.885Z,100156.42
2019-05-23T16:29:38.725Z,100152.81
2019-05-23T16:34:55.549Z,100151.91
2019-05-23T16:37:29.697Z,100151.11
2019-05-23T16:39:59.551Z,100146.43
2019-05-23T16:42:31.249Z,100155.54
2019-05-23T16:56:21.342Z,100152.87
2019-05-23T16:59:15.862Z,100155.81
2019-05-23T17:02:07.037Z,100153.45
2019-05-23T17:04:42.203Z,100157.70
2019-05-23T17:07:36.172Z,100161.14
2019-05-23T17:10:10.912Z,100161.25
2019-05-23T17:12:48.955Z,100162.98
2019-05-23T17:15:41.169Z,100157.02
2019-05-23T17:18:37.994Z,100161.66
2019-05-23T17:21:29.640Z,100164.89
2019-05-23T17:24:05.286Z,100159.91
2019-05-23T17:29:37.648Z,100158.50
2019-05-23T17:32:15.094Z,100155.06
2019-05-23T17:37:22.744Z,100151.23
2019-05-23T17:43:38.594Z,100148.42
2019-05-23T17:46:08.253Z,100135.20
2019-05-23T17:51:18.157Z,100146.59
2019-05-23T17:54:05.918Z,100144.22
2019-05-23T17:56:47.634Z,100145.50
2019-05-23T17:59:17.096Z,100136.86
2019-05-23T18:01:47.410Z,100135.92
2019-05-23T18:04:32.090Z,100132.23
2019-05-23T18:07:02.864Z,100129.48
2019-05-23T18:09:41.904Z,100128.17
2019-05-23T18:12:18.174Z,100137.55
2019-05-23T18:14:48.466Z,100135.28
2019-05-23T18:17:18.011Z,100134.52
2019-05-23T18:19:48.098Z,100132.78
2019-05-23T18:22:18.453Z,100133.55
2019-05-23T18:24:48.723Z,100132.59
2019-05-23T18:27:19.732Z,100134.98
2019-05-23T18:29:49.405Z,100129.54
2019-05-23T18:32:22.789Z,100128.64
2019-05-23T18:34:52.959Z,100125.75
2019-05-23T18:37:22.544Z,100130.80
2019-05-23T18:39:52.184Z,100138.45
2019-05-23T18:42:22.106Z,100133.61
2019-05-23T18:44:52.711Z,100126.31
2019-05-23T18:47:31.643Z,100132.91
2019-05-23T18:50:01.460Z,100133.00
2019-05-23T18:52:30.783Z,100134.53
2019-05-23T18:55:00.427Z,100132.29
2019-05-23T18:57:29.995Z,100126.41
2019-05-23T18:59:59.811Z,100126.81
2019-05-23T19:02:30.105Z,100121.52
2019-05-23T19:04:59.660Z,100131.34
2019-05-23T19:07:29.134Z,100126.95
2019-05-23T19:09:58.662Z,100137.44
2019-05-23T19:12:28.282Z,100124.85
2019-05-23T19:14:57.515Z,100133.42
2019-05-23T19:17:26.893Z,100137.41
2019-05-23T19:19:56.706Z,100144.61
2019-05-23T19:22:26.897Z,100138.30
2019-05-23T19:24:56.510Z,100138.30
2019-05-23T19:27:25.738Z,100136.67
2019-05-23T19:29:55.227Z,100143.69
2019-05-23T19:32:26.256Z,100143.47
2019-05-23T19:34:56.492Z,100147.33
2019-05-23T19:37:27.109Z,100144.02
2019-05-23T19:39:56.748Z,100141.74
2019-05-23T19:42:29.280Z,100144.57
2019-05-23T19:45:02.232Z,100141.33
2019-05-23T19:47:31.645Z,100142.02
2019-05-23T19:50:03.203Z,100145.13
2019-05-23T19:52:32.766Z,100137.27
2019-05-23T19:55:05.237Z,100132.83
2019-05-23T19:57:36.173Z,100134.45
2019-05-23T20:00:09.068Z,100117.98
2019-05-23T20:02:47.525Z,100114.80
2019-05-23T20:05:23.456Z,100116.80
2019-05-23T20:07:52.802Z,100124.45
2019-05-23T20:10:22.614Z,100111.20
2019-05-23T20:12:51.933Z,100100.39
2019-05-23T20:15:22.148Z,100092.32
2019-05-23T20:17:52.362Z,100090.36
2019-05-23T20:20:22.988Z,100087.16
2019-05-23T20:22:57.258Z,100077.98
2019-05-23T20:25:26.871Z,100076.41
2019-05-23T20:27:56.236Z,100060.49
2019-05-23T20:30:54.956Z,100061.63
2019-05-23T20:33:26.335Z,100056.73
2019-05-23T20:35:55.855Z,100055.27
2019-05-23T20:38:26.520Z,100060.04
2019-05-23T20:40:56.704Z,100066.25
2019-05-23T20:43:25.993Z,100076.18
2019-05-23T20:45:55.311Z,100074.06
2019-05-23T20:48:25.924Z,100073.27
2019-05-23T20:50:57.760Z,100065.89
2019-05-23T20:53:28.167Z,100066.80
2019-05-23T20:55:58.539Z,100063.76
2019-05-23T20:58:29.057Z,100062.00
2019-05-23T21:01:08.357Z,100060.05
2019-05-23T21:03:37.970Z,100063.32
2019-05-23T21:06:08.717Z,100064.36
2019-05-23T21:08:38.026Z,100051.44
2019-05-23T21:11:07.295Z,100052.62
2019-05-23T21:13:36.900Z,100048.62
2019-05-23T21:16:08.760Z,100044.31
2019-05-23T21:18:40.501Z,100043.87
2019-05-23T21:21:09.986Z,100038.25
2019-05-23T21:23:39.337Z,100035.12
2019-05-23T21:26:09.598Z,100032.06
2019-05-23T21:28:40.097Z,100026.02
2019-05-23T21:31:17.980Z,100030.64
2019-05-23T21:33:47.321Z,100021.80
2019-05-23T21:36:16.909Z,100006.81
2019-05-23T21:38:46.456Z,100005.47
2019-05-23T21:41:15.815Z,99997.53
2019-05-23T21:43:46.676Z,99993.70
2019-05-23T21:46:16.106Z,99992.56
2019-05-23T21:48:45.495Z,99994.74
2019-05-23T21:51:14.773Z,99992.80
2019-05-23T21:53:44.367Z,99988.99
2019-05-23T21:56:13.652Z,99986.09
2019-05-23T21:58:42.941Z,99983.45
2019-05-23T22:01:48.250Z,99980.44
2019-05-23T22:04:36.682Z,99985.06
2019-05-23T22:07:07.134Z,99975.33
2019-05-23T22:09:36.437Z,99975.28
2019-05-23T22:12:06.976Z,99971.69
2019-05-23T22:14:36.692Z,99966.70
2019-05-23T22:17:06.051Z,99964.96
2019-05-23T22:19:35.372Z,99965.38
2019-05-23T22:22:10.446Z,99967.27
2019-05-23T22:24:39.737Z,99969.23
2019-05-23T22:27:11.369Z,99958.36
2019-05-23T22:29:40.993Z,99964.59
2019-05-23T22:32:11.900Z,99963.30
2019-05-23T22:34:52.660Z,99962.25
2019-05-23T22:37:26.581Z,99951.09
2019-05-23T22:39:55.817Z,99959.12
2019-05-23T22:42:26.742Z,99956.05
2019-05-23T22:44:56.151Z,99955.03
2019-05-23T22:47:25.727Z,99961.54
2019-05-23T22:49:55.297Z,99967.03
2019-05-23T22:52:24.550Z,99967.60
2019-05-23T22:54:53.796Z,99969.63
2019-05-23T22:57:23.081Z,99967.27
2019-05-23T22:59:52.358Z,99968.39
2019-05-23T23:02:21.729Z,99976.23
2019-05-23T23:04:50.994Z,99975.86
2019-05-23T23:07:21.199Z,99977.81
2019-05-23T23:09:50.529Z,99975.97
2019-05-23T23:12:19.823Z,99974.33
2019-05-23T23:14:49.397Z,99977.58
2019-05-23T23:17:19.582Z,99981.55
2019-05-23T23:19:48.838Z,99985.63
2019-05-23T23:22:18.431Z,99984.58
2019-05-23T23:24:47.980Z,99988.68
2019-05-23T23:27:17.279Z,99997.08
2019-05-23T23:29:46.565Z,99997.92
2019-05-23T23:32:15.844Z,99991.92
2019-05-23T23:34:45.118Z,99995.20
2019-05-23T23:37:14.451Z,100003.14
2019-05-23T23:39:43.938Z,99997.09
2019-05-23T23:42:13.471Z,99998.41
2019-05-23T23:44:42.000Z,99992.22
2019-05-23T23:47:28.564Z,100002.90
2019-05-23T23:50:15.449Z,100000.41
2019-05-23T23:53:02.087Z,100001.72
2019-05-23T23:55:49.284Z,99994.44
2019-05-23T23:58:17.648Z,99998.59
